createdAt,value
2023-02-17T00:00:17.218Z,1.85
2023-02-17T00:01:25.788Z,1.83
2023-02-17T00:02:28.669Z,1.77
2023-02-17T00:03:31.537Z,1.90
2023-02-17T00:04:34.742Z,1.96
2023-02-17T00:05:40.488Z,1.89
2023-02-17T00:06:43.434Z,1.92
2023-02-17T00:07:46.466Z,2.01
2023-02-17T00:08:50.363Z,2.03
2023-02-17T00:09:53.940Z,2.10
2023-02-17T00:10:58.536Z,2.10
2023-02-17T00:12:01.308Z,2.07
2023-02-17T00:13:04.785Z,2.13
2023-02-17T00:14:08.336Z,2.12
2023-02-17T00:15:11.133Z,2.15
2023-02-17T00:16:18.668Z,2.17
2023-02-17T00:17:21.699Z,2.31
2023-02-17T00:18:24.771Z,2.38
2023-02-17T00:19:27.756Z,2.37
2023-02-17T00:20:30.994Z,2.36
2023-02-17T00:21:33.863Z,2.34
2023-02-17T00:22:36.933Z,2.47
2023-02-17T00:23:39.789Z,2.48
2023-02-17T00:24:42.766Z,2.52
2023-02-17T00:25:45.636Z,2.56
2023-02-17T00:26:49.505Z,2.58
2023-02-17T00:27:52.341Z,2.50
2023-02-17T00:28:55.321Z,2.46
2023-02-17T00:29:58.269Z,2.47
2023-02-17T00:31:09.668Z,2.44
2023-02-17T00:32:12.963Z,2.48
2023-02-17T00:33:15.786Z,2.39
2023-02-17T00:34:18.819Z,2.31
2023-02-17T00:35:22.018Z,2.36
2023-02-17T00:36:26.832Z,2.46
2023-02-17T00:37:29.894Z,2.44
2023-02-17T00:38:32.982Z,2.46
2023-02-17T00:39:35.825Z,2.55
2023-02-17T00:40:39.213Z,2.50
2023-02-17T00:41:42.413Z,2.41
2023-02-17T00:42:45.340Z,2.46
2023-02-17T00:43:48.912Z,2.43
2023-02-17T00:44:51.800Z,2.44
2023-02-17T00:45:54.940Z,2.44
2023-02-17T00:46:57.888Z,2.48
2023-02-17T00:48:00.947Z,2.54
2023-02-17T00:49:03.843Z,2.60
2023-02-17T00:50:07.856Z,2.59
2023-02-17T00:51:11.659Z,2.58
2023-02-17T00:52:14.581Z,2.63
2023-02-17T00:53:17.732Z,2.69
2023-02-17T00:54:21.002Z,2.66
2023-02-17T00:55:23.741Z,2.63
2023-02-17T00:56:26.706Z,2.74
2023-02-17T00:57:32.555Z,2.71
2023-02-17T00:58:36.779Z,2.71
2023-02-17T00:59:39.760Z,2.73
2023-02-17T01:00:42.947Z,2.77
2023-02-17T01:01:45.985Z,2.78
2023-02-17T01:02:48.922Z,2.74
2023-02-17T01:03:52.142Z,2.76
2023-02-17T01:04:55.096Z,2.86
2023-02-17T01:05:57.951Z,2.89
2023-02-17T01:07:01.004Z,2.89
2023-02-17T01:08:03.913Z,2.81
2023-02-17T01:09:08.827Z,2.90
2023-02-17T01:10:11.982Z,2.85
2023-02-17T01:11:23.151Z,2.85
2023-02-17T01:12:25.937Z,2.87
2023-02-17T01:13:28.897Z,2.86
2023-02-17T01:14:31.821Z,2.95
2023-02-17T01:15:46.927Z,2.98
2023-02-17T01:16:50.456Z,2.92
2023-02-17T01:17:53.339Z,2.93
2023-02-17T01:18:56.576Z,2.83
2023-02-17T01:19:59.501Z,2.86
2023-02-17T01:21:02.459Z,2.88
2023-02-17T01:22:05.266Z,2.92
2023-02-17T01:23:10.723Z,2.89
2023-02-17T01:24:14.062Z,2.92
2023-02-17T01:25:16.985Z,2.91
2023-02-17T01:26:23.813Z,3.00
2023-02-17T01:27:26.725Z,2.93
2023-02-17T01:28:31.565Z,3.00
2023-02-17T01:29:34.404Z,3.06
2023-02-17T01:30:37.426Z,3.15
2023-02-17T01:31:40.613Z,3.20
2023-02-17T01:32:43.778Z,3.17
2023-02-17T01:33:47.104Z,3.07
2023-02-17T01:34:50.541Z,2.98
2023-02-17T01:35:53.356Z,2.93
2023-02-17T01:36:56.413Z,2.90
2023-02-17T01:37:59.204Z,2.87
2023-02-17T01:39:02.067Z,3.04
2023-02-17T01:40:05.496Z,2.97
2023-02-17T01:41:12.829Z,3.00
2023-02-17T01:42:21.010Z,2.94
2023-02-17T01:43:23.971Z,2.96
2023-02-17T01:44:26.967Z,2.94
2023-02-17T01:45:42.056Z,2.92
2023-02-17T01:46:47.545Z,2.87
2023-02-17T01:47:59.756Z,2.91
2023-02-17T01:49:09.785Z,2.96
2023-02-17T01:50:12.727Z,3.02
2023-02-17T01:51:23.399Z,3.03
2023-02-17T01:52:27.115Z,2.94
2023-02-17T01:53:41.852Z,2.96
2023-02-17T01:54:51.024Z,3.09
2023-02-17T01:55:55.847Z,3.11
2023-02-17T01:57:02.192Z,3.02
2023-02-17T01:58:09.182Z,3.01
2023-02-17T01:59:18.997Z,2.86
2023-02-17T02:00:25.038Z,2.76
2023-02-17T02:01:29.250Z,2.89
2023-02-17T02:02:32.757Z,2.80
2023-02-17T02:03:37.744Z,2.79
2023-02-17T02:04:45.386Z,2.79
2023-02-17T02:05:48.293Z,2.79
2023-02-17T02:06:51.096Z,2.72
2023-02-17T02:07:54.016Z,2.80
2023-02-17T02:09:07.185Z,2.76
2023-02-17T02:10:14.371Z,2.83
2023-02-17T02:11:17.653Z,2.79
2023-02-17T02:12:26.920Z,2.81
2023-02-17T02:13:29.718Z,2.97
2023-02-17T02:14:32.547Z,3.09
2023-02-17T02:15:52.302Z,3.10
2023-02-17T02:17:23.771Z,3.21
2023-02-17T02:18:59.295Z,3.34
2023-02-17T02:20:17.335Z,3.34
2023-02-17T02:21:50.813Z,3.58
2023-02-17T02:23:31.254Z,3.60
2023-02-17T02:25:06.474Z,3.50
2023-02-17T02:26:34.440Z,3.75
2023-02-17T02:28:02.148Z,3.81
2023-02-17T02:29:23.279Z,3.93
2023-02-17T02:30:39.935Z,4.00
2023-02-17T02:31:46.730Z,3.88
2023-02-17T02:33:13.420Z,3.89
2023-02-17T02:34:21.912Z,3.97
2023-02-17T02:35:31.353Z,3.96
2023-02-17T02:36:45.512Z,3.93
2023-02-17T02:38:24.893Z,3.91
2023-02-17T02:39:35.665Z,3.95
2023-02-17T02:40:47.671Z,3.85
2023-02-17T02:41:52.849Z,3.86
2023-02-17T02:42:57.433Z,3.82
2023-02-17T02:44:00.366Z,3.86
2023-02-17T02:45:08.049Z,3.84
2023-02-17T02:46:11.047Z,3.82
2023-02-17T02:47:41.784Z,3.80
2023-02-17T02:48:45.594Z,3.79
2023-02-17T02:49:48.462Z,3.77
2023-02-17T02:51:19.052Z,3.74
2023-02-17T02:52:32.060Z,3.75
2023-02-17T02:53:51.270Z,3.74
2023-02-17T02:55:04.544Z,3.69
2023-02-17T02:56:41.455Z,3.73
2023-02-17T02:58:11.900Z,3.64
2023-02-17T02:59:32.913Z,3.56
2023-02-17T03:00:47.368Z,3.54
2023-02-17T03:02:08.819Z,3.46
2023-02-17T03:03:28.967Z,3.44
2023-02-17T03:04:43.207Z,3.37
2023-02-17T03:06:14.706Z,3.42
2023-02-17T03:07:26.702Z,3.38
2023-02-17T03:08:33.801Z,3.35
2023-02-17T03:09:37.139Z,3.46
2023-02-17T03:10:51.365Z,3.41
2023-02-17T03:11:56.637Z,3.28
2023-02-17T03:13:02.907Z,3.22
2023-02-17T03:14:09.276Z,3.17
2023-02-17T03:15:27.215Z,3.16
2023-02-17T03:16:30.187Z,3.15
2023-02-17T03:17:33.817Z,3.08
2023-02-17T03:18:36.858Z,3.06
2023-02-17T03:19:40.167Z,2.98
2023-02-17T03:20:57.848Z,3.01
2023-02-17T03:22:16.956Z,2.97
2023-02-17T03:23:19.715Z,2.99
2023-02-17T03:24:22.784Z,3.04
2023-02-17T03:25:25.559Z,2.91
2023-02-17T03:26:28.693Z,2.86
2023-02-17T03:27:31.620Z,2.83
2023-02-17T03:28:34.490Z,2.80
2023-02-17T03:29:37.527Z,2.80
2023-02-17T03:30:40.906Z,2.81
2023-02-17T03:31:43.928Z,2.76
2023-02-17T03:32:47.316Z,2.71
2023-02-17T03:33:50.685Z,2.65
2023-02-17T03:34:53.839Z,2.59
2023-02-17T03:35:56.561Z,2.57
2023-02-17T03:36:59.327Z,2.53
2023-02-17T03:38:02.255Z,2.52
2023-02-17T03:39:05.175Z,2.56
2023-02-17T03:40:09.272Z,2.54
2023-02-17T03:41:15.458Z,2.54
2023-02-17T03:42:18.431Z,2.52
2023-02-17T03:43:21.336Z,2.49
2023-02-17T03:44:24.115Z,2.48
2023-02-17T03:45:26.798Z,2.45
2023-02-17T03:46:30.012Z,2.40
2023-02-17T03:47:32.914Z,2.47
2023-02-17T03:48:36.290Z,2.41
2023-02-17T03:49:39.217Z,2.33
2023-02-17T03:50:42.228Z,2.30
2023-02-17T03:51:45.159Z,2.38
2023-02-17T03:52:47.959Z,2.38
2023-02-17T03:53:51.417Z,2.39
2023-02-17T03:54:54.144Z,2.34
2023-02-17T03:55:56.992Z,2.35
2023-02-17T03:57:01.286Z,2.31
2023-02-17T03:58:04.622Z,2.29
2023-02-17T03:59:07.455Z,2.29
2023-02-17T04:00:10.568Z,2.34
2023-02-17T04:01:14.127Z,2.34
2023-02-17T04:02:17.041Z,2.38
2023-02-17T04:03:19.930Z,2.47
2023-02-17T04:04:22.956Z,2.37
2023-02-17T04:05:25.999Z,2.37
2023-02-17T04:06:28.913Z,2.42
2023-02-17T04:07:31.931Z,2.39
2023-02-17T04:08:34.760Z,2.26
2023-02-17T04:09:37.592Z,2.22
2023-02-17T04:10:40.342Z,2.23
2023-02-17T04:11:44.170Z,2.24
2023-02-17T04:12:46.983Z,2.23
2023-02-17T04:13:49.697Z,2.26
2023-02-17T04:14:52.415Z,2.20
2023-02-17T04:15:55.579Z,2.19
2023-02-17T04:16:58.507Z,2.21
2023-02-17T04:18:02.017Z,2.26
2023-02-17T04:19:06.692Z,2.17
2023-02-17T04:20:10.173Z,2.26
2023-02-17T04:21:13.057Z,2.43
2023-02-17T04:22:15.733Z,2.31
2023-02-17T04:23:18.705Z,2.26
2023-02-17T04:24:21.615Z,2.22
2023-02-17T04:25:24.545Z,2.26
2023-02-17T04:26:27.773Z,2.25
2023-02-17T04:27:30.915Z,2.35
2023-02-17T04:28:33.891Z,2.36
2023-02-17T04:29:36.870Z,2.43
2023-02-17T04:30:40.434Z,2.58
2023-02-17T04:31:43.402Z,2.51
2023-02-17T04:32:46.271Z,2.42
2023-02-17T04:33:48.983Z,2.33
2023-02-17T04:34:51.626Z,2.29
2023-02-17T04:35:59.747Z,2.26
2023-02-17T04:37:02.690Z,2.26
2023-02-17T04:38:06.816Z,2.37
2023-02-17T04:39:09.607Z,2.34
2023-02-17T04:40:12.815Z,2.43
2023-02-17T04:41:15.768Z,2.35
2023-02-17T04:42:18.573Z,2.24
2023-02-17T04:43:21.807Z,2.23
2023-02-17T04:44:24.577Z,2.18
2023-02-17T04:45:27.536Z,2.20
2023-02-17T04:46:30.435Z,2.24
2023-02-17T04:47:33.772Z,2.32
2023-02-17T04:48:36.721Z,2.29
2023-02-17T04:49:39.535Z,2.39
2023-02-17T04:50:42.281Z,2.37
2023-02-17T04:51:45.380Z,2.36
2023-02-17T04:52:48.413Z,2.36
2023-02-17T04:53:51.355Z,2.40
2023-02-17T04:54:54.173Z,2.37
2023-02-17T04:55:57.016Z,2.38
2023-02-17T04:56:59.775Z,2.31
2023-02-17T04:58:02.744Z,2.30
2023-02-17T04:59:05.705Z,2.22
2023-02-17T05:00:09.093Z,2.20
2023-02-17T05:01:12.033Z,2.32
2023-02-17T05:02:14.975Z,2.27
2023-02-17T05:03:18.931Z,2.25
2023-02-17T05:04:21.699Z,2.25
2023-02-17T05:05:24.652Z,2.20
2023-02-17T05:06:27.418Z,2.25
2023-02-17T05:07:30.251Z,2.20
2023-02-17T05:08:33.003Z,2.14
2023-02-17T05:09:36.138Z,2.11
2023-02-17T05:10:39.843Z,2.10
2023-02-17T05:11:42.690Z,2.24
2023-02-17T05:12:45.671Z,2.37
2023-02-17T05:13:48.437Z,2.37
2023-02-17T05:14:51.213Z,2.33
2023-02-17T05:15:53.971Z,2.33
2023-02-17T05:16:57.137Z,2.34
2023-02-17T05:17:59.956Z,2.33
2023-02-17T05:19:02.871Z,2.32
2023-02-17T05:20:06.917Z,2.34
2023-02-17T05:21:09.792Z,2.30
2023-02-17T05:22:12.792Z,2.27
2023-02-17T05:23:15.596Z,2.32
2023-02-17T05:24:18.404Z,2.33
2023-02-17T05:25:21.289Z,2.30
2023-02-17T05:26:24.890Z,2.31
2023-02-17T05:27:27.838Z,2.30
2023-02-17T05:28:30.669Z,2.29
2023-02-17T05:29:33.700Z,2.32
2023-02-17T05:30:36.660Z,2.36
2023-02-17T05:31:39.519Z,2.38
2023-02-17T05:32:42.467Z,2.39
2023-02-17T05:33:45.229Z,2.41
2023-02-17T05:34:48.033Z,2.37
2023-02-17T05:35:50.737Z,2.43
2023-02-17T05:36:53.430Z,2.48
2023-02-17T05:37:56.273Z,2.54
2023-02-17T05:38:59.138Z,2.61
2023-02-17T05:40:02.003Z,2.65
2023-02-17T05:41:05.451Z,2.65
2023-02-17T05:42:08.292Z,2.63
2023-02-17T05:43:11.437Z,2.65
2023-02-17T05:44:14.317Z,2.64
2023-02-17T05:45:17.265Z,2.61
2023-02-17T05:46:20.067Z,2.62
2023-02-17T05:47:24.335Z,2.65
2023-02-17T05:48:28.183Z,2.73
2023-02-17T05:49:31.584Z,2.71
2023-02-17T05:50:34.543Z,2.69
2023-02-17T05:51:38.338Z,2.69
2023-02-17T05:52:41.113Z,2.76
2023-02-17T05:53:45.195Z,2.76
2023-02-17T05:54:48.088Z,2.76
2023-02-17T05:55:50.740Z,2.78
2023-02-17T05:56:53.957Z,2.74
2023-02-17T05:57:56.836Z,2.73
2023-02-17T05:59:00.717Z,2.74
2023-02-17T06:00:05.232Z,2.79
2023-02-17T06:01:11.897Z,2.82
2023-02-17T06:02:14.695Z,2.82
2023-02-17T06:03:17.569Z,2.81
2023-02-17T06:04:20.383Z,2.80
2023-02-17T06:05:23.442Z,2.78
2023-02-17T06:06:26.304Z,2.80
2023-02-17T06:07:29.093Z,2.79
2023-02-17T06:08:32.062Z,2.77
2023-02-17T06:09:35.129Z,2.77
2023-02-17T06:10:38.413Z,2.76
2023-02-17T06:11:41.656Z,2.76
2023-02-17T06:12:44.433Z,2.74
2023-02-17T06:13:47.168Z,2.70
2023-02-17T06:14:49.924Z,2.71
2023-02-17T06:15:53.277Z,2.73
2023-02-17T06:16:57.110Z,2.74
2023-02-17T06:18:00.120Z,2.70
2023-02-17T06:19:05.301Z,2.68
2023-02-17T06:20:09.509Z,2.67
2023-02-17T06:21:12.319Z,2.71
2023-02-17T06:22:17.247Z,2.74
2023-02-17T06:23:21.486Z,2.75
2023-02-17T06:24:25.330Z,2.74
2023-02-17T06:25:28.231Z,2.72
2023-02-17T06:26:31.564Z,2.72
2023-02-17T06:27:34.331Z,2.75
2023-02-17T06:28:37.115Z,2.75
2023-02-17T06:29:39.878Z,2.76
2023-02-17T06:30:42.973Z,2.76
2023-02-17T06:31:45.978Z,2.78
2023-02-17T06:32:48.838Z,2.81
2023-02-17T06:33:51.589Z,2.86
2023-02-17T06:34:54.288Z,2.89
2023-02-17T06:35:57.305Z,2.90
2023-02-17T06:37:00.209Z,2.95
2023-02-17T06:38:03.220Z,3.01
2023-02-17T06:39:05.990Z,3.05
2023-02-17T06:40:09.806Z,3.03
2023-02-17T06:41:14.185Z,3.03
2023-02-17T06:42:17.172Z,3.03
2023-02-17T06:43:19.971Z,3.04
2023-02-17T06:44:22.805Z,3.06
2023-02-17T06:45:25.660Z,3.06
2023-02-17T06:46:28.828Z,3.07
2023-02-17T06:47:34.919Z,3.13
2023-02-17T06:48:38.202Z,3.17
2023-02-17T06:49:41.326Z,3.16
2023-02-17T06:50:43.986Z,3.18
2023-02-17T06:51:46.721Z,3.17
2023-02-17T06:52:49.569Z,3.21
2023-02-17T06:53:52.316Z,3.28
2023-02-17T06:54:55.012Z,3.31
2023-02-17T06:55:58.016Z,3.33
2023-02-17T06:57:01.087Z,3.36
2023-02-17T06:58:04.819Z,3.41
2023-02-17T06:59:07.588Z,3.51
2023-02-17T07:00:10.923Z,3.55
2023-02-17T07:01:19.470Z,3.56
2023-02-17T07:02:22.626Z,3.56
2023-02-17T07:03:25.706Z,3.64
2023-02-17T07:04:28.623Z,3.68
2023-02-17T07:05:31.414Z,3.69
2023-02-17T07:06:34.312Z,3.77
2023-02-17T07:07:37.834Z,3.80
2023-02-17T07:08:40.896Z,3.80
2023-02-17T07:09:44.210Z,3.83
2023-02-17T07:10:47.044Z,3.86
2023-02-17T07:11:51.420Z,3.92
2023-02-17T07:12:54.391Z,3.98
2023-02-17T07:13:58.160Z,4.02
2023-02-17T07:15:00.931Z,4.12
2023-02-17T07:16:04.595Z,4.18
2023-02-17T07:17:07.833Z,4.24
2023-02-17T07:18:10.906Z,4.27
2023-02-17T07:19:13.771Z,4.32
2023-02-17T07:20:17.076Z,4.34
2023-02-17T07:21:19.875Z,4.37
2023-02-17T07:22:25.945Z,4.44
2023-02-17T07:23:28.814Z,4.45
2023-02-17T07:24:31.882Z,4.46
2023-02-17T07:25:34.715Z,4.51
2023-02-17T07:26:39.298Z,4.53
2023-02-17T07:27:42.224Z,4.57
2023-02-17T07:28:45.616Z,4.61
2023-02-17T07:29:48.392Z,4.63
2023-02-17T07:30:51.313Z,4.68
2023-02-17T07:31:54.404Z,4.70
2023-02-17T07:32:57.220Z,4.76
2023-02-17T07:34:01.591Z,4.80
2023-02-17T07:35:04.637Z,4.87
2023-02-17T07:36:13.202Z,4.91
2023-02-17T07:37:16.145Z,4.94
2023-02-17T07:38:18.982Z,4.97
2023-02-17T07:39:21.730Z,5.03
2023-02-17T07:40:25.188Z,5.08
2023-02-17T07:41:33.253Z,5.12
2023-02-17T07:42:36.096Z,5.18
2023-02-17T07:43:39.284Z,5.25
2023-02-17T07:44:42.148Z,5.26
2023-02-17T07:45:44.963Z,5.26
2023-02-17T07:46:48.847Z,5.33
2023-02-17T07:47:51.565Z,5.37
2023-02-17T07:48:55.195Z,5.41
2023-02-17T07:49:58.429Z,5.45
2023-02-17T07:51:09.442Z,5.49
2023-02-17T07:52:12.574Z,5.55
2023-02-17T07:53:15.375Z,5.61
2023-02-17T07:54:19.162Z,5.64
2023-02-17T07:55:21.971Z,5.69
2023-02-17T07:56:25.030Z,5.71
2023-02-17T07:57:27.868Z,5.78
2023-02-17T07:58:36.102Z,5.83
2023-02-17T07:59:38.887Z,5.89
2023-02-17T08:00:41.824Z,5.95
2023-02-17T08:01:44.750Z,5.98
2023-02-17T08:02:47.734Z,6.08
2023-02-17T08:03:50.964Z,6.13
2023-02-17T08:04:53.938Z,6.17
2023-02-17T08:05:56.636Z,6.24
2023-02-17T08:06:59.372Z,6.29
2023-02-17T08:08:20.663Z,6.33
2023-02-17T08:09:42.284Z,6.38
2023-02-17T08:11:03.621Z,6.43
2023-02-17T08:12:28.566Z,6.50
2023-02-17T08:13:31.440Z,6.57
2023-02-17T08:14:34.220Z,6.74
2023-02-17T08:15:37.269Z,6.85
2023-02-17T08:16:40.187Z,6.95
2023-02-17T08:17:44.690Z,7.05
2023-02-17T08:18:47.531Z,7.12
2023-02-17T08:19:50.229Z,7.27
2023-02-17T08:20:53.231Z,7.38
2023-02-17T08:21:55.968Z,7.42
2023-02-17T08:22:58.861Z,7.47
2023-02-17T08:24:01.518Z,7.50
2023-02-17T08:25:06.538Z,7.54
2023-02-17T08:26:09.459Z,7.54
2023-02-17T08:27:13.502Z,7.52
2023-02-17T08:28:18.184Z,7.53
2023-02-17T08:29:21.125Z,7.54
2023-02-17T08:30:24.024Z,7.65
2023-02-17T08:31:30.318Z,7.65
2023-02-17T08:32:33.213Z,7.74
2023-02-17T08:33:36.182Z,7.71
2023-02-17T08:34:38.955Z,7.70
2023-02-17T08:35:43.677Z,7.74
2023-02-17T08:36:46.633Z,7.80
2023-02-17T08:37:50.590Z,7.76
2023-02-17T08:38:54.294Z,7.74
2023-02-17T08:40:01.702Z,7.76
2023-02-17T08:41:13.622Z,7.76
2023-02-17T08:42:18.192Z,7.75
2023-02-17T08:43:21.157Z,7.74
2023-02-17T08:44:24.055Z,7.71
2023-02-17T08:45:27.142Z,7.67
2023-02-17T08:46:30.966Z,7.65
2023-02-17T08:47:35.392Z,7.66
2023-02-17T08:48:38.331Z,7.68
2023-02-17T08:49:41.209Z,7.73
2023-02-17T08:50:47.140Z,7.74
2023-02-17T08:51:50.721Z,7.77
2023-02-17T08:52:53.938Z,7.81
2023-02-17T08:53:59.498Z,7.88
2023-02-17T08:55:02.576Z,7.98
2023-02-17T08:56:06.492Z,8.01
2023-02-17T08:57:09.705Z,8.06
2023-02-17T08:58:12.830Z,8.06
2023-02-17T08:59:16.015Z,8.06
2023-02-17T09:00:19.386Z,8.10
2023-02-17T09:01:23.275Z,8.14
2023-02-17T09:02:26.200Z,8.19
2023-02-17T09:03:29.293Z,8.21
2023-02-17T09:04:32.169Z,8.23
2023-02-17T09:05:36.463Z,8.26
2023-02-17T09:06:43.038Z,8.31
2023-02-17T09:07:46.195Z,8.35
2023-02-17T09:08:49.515Z,8.39
2023-02-17T09:09:52.396Z,8.43
2023-02-17T09:10:55.374Z,8.49
2023-02-17T09:11:58.772Z,8.56
2023-02-17T09:13:01.600Z,8.61
2023-02-17T09:14:05.967Z,8.73
2023-02-17T09:15:09.303Z,8.73
2023-02-17T09:16:12.446Z,8.80
2023-02-17T09:17:15.664Z,8.86
2023-02-17T09:18:18.572Z,8.92
2023-02-17T09:19:21.945Z,8.95
2023-02-17T09:20:25.628Z,8.99
2023-02-17T09:21:28.450Z,9.09
2023-02-17T09:22:32.555Z,9.09
2023-02-17T09:23:36.215Z,9.12
2023-02-17T09:24:40.368Z,9.13
2023-02-17T09:25:43.765Z,9.12
2023-02-17T09:26:47.067Z,9.15
2023-02-17T09:27:50.185Z,9.18
2023-02-17T09:28:52.969Z,9.29
2023-02-17T09:29:55.867Z,9.29
2023-02-17T09:30:59.186Z,9.32
2023-02-17T09:32:02.161Z,9.31
2023-02-17T09:33:05.606Z,9.30
2023-02-17T09:34:08.671Z,9.26
2023-02-17T09:35:20.495Z,9.28
2023-02-17T09:36:26.484Z,9.31
2023-02-17T09:37:29.445Z,9.33
2023-02-17T09:38:32.340Z,9.39
2023-02-17T09:39:35.416Z,9.40
2023-02-17T09:40:49.851Z,9.39
2023-02-17T09:41:54.948Z,9.40
2023-02-17T09:42:57.747Z,9.41
2023-02-17T09:44:01.581Z,9.41
2023-02-17T09:45:14.412Z,9.51
2023-02-17T09:46:28.543Z,9.56
2023-02-17T09:48:00.434Z,9.61
2023-02-17T09:49:17.948Z,9.66
2023-02-17T09:50:29.858Z,9.66
2023-02-17T09:51:43.259Z,9.71
2023-02-17T09:52:53.805Z,9.67
2023-02-17T09:54:08.675Z,9.76
2023-02-17T09:55:17.088Z,9.74
2023-02-17T09:56:25.438Z,9.69
2023-02-17T09:57:34.090Z,9.71
2023-02-17T09:58:41.698Z,9.64
2023-02-17T10:00:14.978Z,9.59
2023-02-17T10:01:29.693Z,9.56
2023-02-17T10:02:36.520Z,9.55
2023-02-17T10:03:54.370Z,9.55
2023-02-17T10:05:01.562Z,9.57
2023-02-17T10:06:28.715Z,9.57
2023-02-17T10:07:39.313Z,9.58
2023-02-17T10:08:55.486Z,9.58
2023-02-17T10:10:07.673Z,9.62
2023-02-17T10:11:23.441Z,9.64
2023-02-17T10:12:31.210Z,9.66
2023-02-17T10:13:38.192Z,9.68
2023-02-17T10:14:43.266Z,9.70
2023-02-17T10:15:51.303Z,9.75
2023-02-17T10:17:23.859Z,9.79
2023-02-17T10:18:32.762Z,9.86
2023-02-17T10:19:44.934Z,9.93
2023-02-17T10:20:58.611Z,9.97
2023-02-17T10:22:18.902Z,10.00
2023-02-17T10:23:26.826Z,10.10
2023-02-17T10:24:29.478Z,10.15
2023-02-17T10:25:46.739Z,10.10
2023-02-17T10:26:49.404Z,10.13
2023-02-17T10:28:04.237Z,10.23
2023-02-17T10:29:19.793Z,10.27
2023-02-17T10:31:01.589Z,10.29
2023-02-17T10:32:27.304Z,10.29
2023-02-17T10:33:36.386Z,10.34
2023-02-17T10:34:44.532Z,10.43
2023-02-17T10:35:51.850Z,10.46
2023-02-17T10:37:04.110Z,10.49
2023-02-17T10:38:13.560Z,10.56
2023-02-17T10:39:22.814Z,10.63
2023-02-17T10:40:28.331Z,10.66
2023-02-17T10:41:39.058Z,10.79
2023-02-17T10:42:42.213Z,10.73
2023-02-17T10:43:45.643Z,10.77
2023-02-17T10:44:51.426Z,10.76
2023-02-17T10:45:55.034Z,10.72
2023-02-17T10:46:58.495Z,10.72
2023-02-17T10:48:09.805Z,10.71
2023-02-17T10:49:24.365Z,10.72
2023-02-17T10:50:27.323Z,10.83
2023-02-17T10:51:31.997Z,10.77
2023-02-17T10:52:39.996Z,10.75
2023-02-17T10:53:47.715Z,10.72
2023-02-17T10:55:11.450Z,10.73
2023-02-17T10:56:32.865Z,10.65
2023-02-17T10:57:38.608Z,10.64
2023-02-17T10:58:55.246Z,10.63
2023-02-17T10:59:58.619Z,10.57
2023-02-17T11:01:04.837Z,10.50
2023-02-17T11:02:19.086Z,10.47
2023-02-17T11:03:24.682Z,10.47
2023-02-17T11:04:27.445Z,10.48
2023-02-17T11:05:33.270Z,10.42
2023-02-17T11:06:44.759Z,10.40
2023-02-17T11:07:48.600Z,10.40
2023-02-17T11:09:03.840Z,10.50
2023-02-17T11:10:26.539Z,10.52
2023-02-17T11:11:31.952Z,10.44
2023-02-17T11:12:41.614Z,10.37
2023-02-17T11:14:00.109Z,10.30
2023-02-17T11:15:05.532Z,10.27
2023-02-17T11:16:48.575Z,10.28
2023-02-17T11:17:52.218Z,10.30
2023-02-17T11:18:57.648Z,10.34
2023-02-17T11:20:05.026Z,10.29
2023-02-17T11:21:11.635Z,10.22
2023-02-17T11:22:35.528Z,10.19
2023-02-17T11:23:49.852Z,10.28
2023-02-17T11:25:00.261Z,10.20
2023-02-17T11:26:10.932Z,10.19
2023-02-17T11:27:27.153Z,10.21
2023-02-17T11:28:30.338Z,10.26
2023-02-17T11:29:34.321Z,10.32
2023-02-17T11:30:40.704Z,10.32
2023-02-17T11:31:57.664Z,10.32
2023-02-17T11:33:22.390Z,10.33
2023-02-17T11:34:28.898Z,10.37
2023-02-17T11:35:37.226Z,10.40
2023-02-17T11:36:40.167Z,10.42
2023-02-17T11:37:43.656Z,10.44
2023-02-17T11:38:46.498Z,10.44
2023-02-17T11:39:55.254Z,10.45
2023-02-17T11:41:01.194Z,10.45
2023-02-17T11:42:14.996Z,10.48
2023-02-17T11:43:21.033Z,10.49
2023-02-17T11:44:26.996Z,10.44
2023-02-17T11:46:01.547Z,10.44
2023-02-17T11:47:15.716Z,10.45
2023-02-17T11:48:33.483Z,10.45
2023-02-17T11:49:36.241Z,10.45
2023-02-17T11:50:52.851Z,10.43
2023-02-17T11:52:04.500Z,10.45
2023-02-17T11:53:13.592Z,10.51
2023-02-17T11:54:29.786Z,10.51
2023-02-17T11:55:47.830Z,10.61
2023-02-17T11:57:04.535Z,10.74
2023-02-17T11:58:26.285Z,10.69
2023-02-17T11:59:44.858Z,10.61
2023-02-17T12:01:18.584Z,10.58
2023-02-17T12:02:48.849Z,10.56
2023-02-17T12:03:51.516Z,10.58
2023-02-17T12:05:09.462Z,10.60
2023-02-17T12:06:23.411Z,10.64
2023-02-17T12:07:47.062Z,10.59
2023-02-17T12:09:30.353Z,10.58
2023-02-17T12:10:42.366Z,10.62
2023-02-17T12:11:45.364Z,10.58
2023-02-17T12:13:13.124Z,10.61
2023-02-17T12:14:52.829Z,10.64
2023-02-17T12:15:58.513Z,10.65
2023-02-17T12:17:51.176Z,10.66
2023-02-17T12:19:37.126Z,10.72
2023-02-17T12:20:58.970Z,10.69
2023-02-17T12:22:08.913Z,10.72
2023-02-17T12:23:49.357Z,10.72
2023-02-17T12:25:12.263Z,10.79
2023-02-17T12:26:32.224Z,10.81
2023-02-17T12:28:13.817Z,10.82
2023-02-17T12:29:25.879Z,10.73
2023-02-17T12:30:46.497Z,10.83
2023-02-17T12:32:23.969Z,10.95
2023-02-17T12:33:32.473Z,10.89
2023-02-17T12:34:53.828Z,10.91
2023-02-17T12:36:09.210Z,10.94
2023-02-17T12:37:33.060Z,10.98
2023-02-17T12:39:04.132Z,11.03
2023-02-17T12:40:22.756Z,11.10
2023-02-17T12:41:39.469Z,11.06
2023-02-17T12:42:54.059Z,11.13
2023-02-17T12:44:02.250Z,11.21
2023-02-17T12:45:08.372Z,11.21
2023-02-17T12:46:15.793Z,11.29
2023-02-17T12:47:41.846Z,11.28
2023-02-17T12:48:47.215Z,11.23
2023-02-17T12:49:56.340Z,11.24
2023-02-17T12:51:37.897Z,11.27
2023-02-17T12:52:44.116Z,11.25
2023-02-17T12:53:53.070Z,11.14
2023-02-17T12:55:11.326Z,11.13
2023-02-17T12:56:44.581Z,11.13
2023-02-17T12:57:58.498Z,10.97
2023-02-17T12:59:14.998Z,11.00
2023-02-17T13:00:26.799Z,11.16
2023-02-17T13:01:32.718Z,11.14
2023-02-17T13:02:36.415Z,11.08
2023-02-17T13:03:39.504Z,11.02
2023-02-17T13:04:44.644Z,10.91
2023-02-17T13:06:11.736Z,10.90
2023-02-17T13:07:26.826Z,10.90
2023-02-17T13:09:17.761Z,10.86
2023-02-17T13:10:36.472Z,10.85
2023-02-17T13:11:39.279Z,10.83
2023-02-17T13:12:43.043Z,10.77
2023-02-17T13:13:45.990Z,10.80
2023-02-17T13:14:51.556Z,10.71
2023-02-17T13:16:15.053Z,10.64
2023-02-17T13:17:28.558Z,10.56
2023-02-17T13:18:37.459Z,10.48
2023-02-17T13:19:40.780Z,10.42
2023-02-17T13:20:56.372Z,10.36
2023-02-17T13:22:02.610Z,10.33
2023-02-17T13:23:12.677Z,10.23
2023-02-17T13:24:52.243Z,10.17
2023-02-17T13:26:13.234Z,10.13
2023-02-17T13:27:29.011Z,10.11
2023-02-17T13:28:38.759Z,10.13
2023-02-17T13:29:42.314Z,10.09
2023-02-17T13:30:48.547Z,10.03
2023-02-17T13:32:04.939Z,10.01
2023-02-17T13:33:16.121Z,9.98
2023-02-17T13:34:33.111Z,10.00
2023-02-17T13:35:37.648Z,9.97
2023-02-17T13:36:40.914Z,9.97
2023-02-17T13:37:46.596Z,10.00
2023-02-17T13:39:27.955Z,10.06
2023-02-17T13:40:40.952Z,10.06
2023-02-17T13:41:50.225Z,10.13
2023-02-17T13:42:56.458Z,10.18
2023-02-17T13:43:59.876Z,10.17
2023-02-17T13:45:14.267Z,10.15
2023-02-17T13:46:25.533Z,10.15
2023-02-17T13:47:37.892Z,10.17
2023-02-17T13:48:41.231Z,10.22
2023-02-17T13:49:57.512Z,10.24
2023-02-17T13:51:24.368Z,10.26
2023-02-17T13:52:30.749Z,10.24
2023-02-17T13:53:38.308Z,10.19
2023-02-17T13:54:58.727Z,10.20
2023-02-17T13:56:07.868Z,10.16
2023-02-17T13:57:23.962Z,10.18
2023-02-17T13:58:36.166Z,10.22
2023-02-17T13:59:39.241Z,10.23
2023-02-17T14:00:45.700Z,10.26
2023-02-17T14:01:49.843Z,10.28
2023-02-17T14:03:06.246Z,10.32
2023-02-17T14:04:30.770Z,10.32
2023-02-17T14:05:33.706Z,10.30
2023-02-17T14:06:38.446Z,10.30
2023-02-17T14:07:41.623Z,10.29
2023-02-17T14:08:44.745Z,10.31
2023-02-17T14:09:54.925Z,10.39
2023-02-17T14:10:59.797Z,10.37
2023-02-17T14:12:07.029Z,10.35
2023-02-17T14:13:12.499Z,10.31
2023-02-17T14:14:16.020Z,10.30
2023-02-17T14:15:25.167Z,10.29
2023-02-17T14:16:34.562Z,10.28
2023-02-17T14:17:37.487Z,10.31
2023-02-17T14:18:45.005Z,10.35
2023-02-17T14:19:49.623Z,10.34
2023-02-17T14:21:24.772Z,10.34
2023-02-17T14:22:35.507Z,10.28
2023-02-17T14:23:42.265Z,10.36
2023-02-17T14:24:45.256Z,10.34
2023-02-17T14:25:48.223Z,10.41
2023-02-17T14:26:56.977Z,10.33
2023-02-17T14:28:00.349Z,10.35
2023-02-17T14:29:09.742Z,10.30
2023-02-17T14:30:38.696Z,10.30
2023-02-17T14:31:50.725Z,10.30
2023-02-17T14:33:22.349Z,10.27
2023-02-17T14:34:25.339Z,10.25
2023-02-17T14:35:28.876Z,10.28
2023-02-17T14:36:38.255Z,10.30
2023-02-17T14:37:42.765Z,10.28
2023-02-17T14:38:56.405Z,10.31
2023-02-17T14:40:00.176Z,10.33
2023-02-17T14:41:08.104Z,10.35
2023-02-17T14:42:11.380Z,10.29
2023-02-17T14:43:14.670Z,10.28
2023-02-17T14:44:17.650Z,10.34
2023-02-17T14:45:20.706Z,10.27
2023-02-17T14:46:24.474Z,10.19
2023-02-17T14:47:27.624Z,10.18
2023-02-17T14:48:30.973Z,10.13
2023-02-17T14:49:34.032Z,10.12
2023-02-17T14:50:42.572Z,10.07
2023-02-17T14:51:46.190Z,10.07